Time;durP1;ratioP1;P1;durP2;ratioP2;P2;SDS_P1;SDS_P2;PMS_P1;PMS_P2;Temp;Humidity;BMP_temperature;BMP_pressure;BME280_temperature;BME280_humidity;BME280_pressure;Samples;Min_cycle;Max_cycle;Signal;HPM_P1;HPM_P2
2023/03/04 00:02:23;;;;;;;21.20;7.90;;;;;;;0.91;100.00;98367.41;104391;1303;24311;-69
2023/03/04 00:04:53;;;;;;;18.30;8.10;;;;;;;0.93;100.00;98360.23;104502;1303;25526;-70
2023/03/04 00:07:22;;;;;;;18.70;7.50;;;;;;;0.95;100.00;98344.16;104512;1303;22578;-72
2023/03/04 00:09:52;;;;;;;21.00;8.00;;;;;;;0.98;100.00;98338.39;104739;1303;25460;-71
2023/03/04 00:12:20;;;;;;;22.20;10.10;;;;;;;1.00;100.00;98332.48;104823;1303;22549;-70
2023/03/04 00:14:49;;;;;;;22.00;8.50;;;;;;;1.01;100.00;98327.21;104831;1303;25361;-70
2023/03/04 00:17:25;;;;;;;20.30;8.30;;;;;;;1.03;100.00;98320.11;104816;1303;25405;-70
2023/03/04 00:19:54;;;;;;;20.80;8.50;;;;;;;1.05;100.00;98309.68;104755;1303;26564;-70
2023/03/04 00:22:23;;;;;;;20.50;8.70;;;;;;;1.06;100.00;98305.57;104866;1303;25432;-70
2023/03/04 00:24:53;;;;;;;17.90;7.70;;;;;;;1.08;100.00;98301.71;104802;1304;23349;-70
2023/03/04 00:27:22;;;;;;;22.40;9.40;;;;;;;1.08;100.00;98295.07;104790;1304;25388;-71
2023/03/04 00:29:51;;;;;;;16.30;7.80;;;;;;;1.09;100.00;98291.11;104719;1304;22549;-70
2023/03/04 00:32:19;;;;;;;16.40;7.70;;;;;;;1.09;100.00;98287.59;104750;1304;25335;-70
2023/03/04 00:34:48;;;;;;;19.60;9.20;;;;;;;1.09;100.00;98285.07;104037;1304;1003401;-70
2023/03/04 00:37:17;;;;;;;16.30;8.10;;;;;;;1.08;100.00;98276.97;103847;1304;1002750;-70
2023/03/04 00:39:46;;;;;;;15.60;7.80;;;;;;;1.08;100.00;98275.77;104769;1303;22556;-70
2023/03/04 00:42:15;;;;;;;18.00;8.20;;;;;;;1.07;100.00;98272.47;104847;1303;26540;-71
2023/03/04 00:44:45;;;;;;;18.00;7.60;;;;;;;1.07;100.00;98268.81;104861;1303;25511;-71
2023/03/04 00:47:14;;;;;;;14.50;7.60;;;;;;;1.05;100.00;98264.71;104825;1303;25457;-71
2023/03/04 00:49:42;;;;;;;17.50;8.20;;;;;;;1.04;100.00;98264.65;104819;1303;22557;-70
2023/03/04 00:52:11;;;;;;;18.70;8.60;;;;;;;1.02;100.00;98268.93;104841;1303;25457;-71
2023/03/04 00:54:41;;;;;;;17.70;7.70;;;;;;;1.00;100.00;98266.09;104809;1303;25283;-70
2023/03/04 00:57:10;;;;;;;16.00;7.10;;;;;;;1.00;100.00;98263.27;104838;1303;25430;-69
2023/03/04 00:59:39;;;;;;;17.20;7.80;;;;;;;0.98;100.00;98265.96;104853;1303;25335;-71
2023/03/04 01:02:10;;;;;;;16.10;8.00;;;;;;;0.94;100.00;98267.56;104136;1303;1003101;-71
2023/03/04 01:04:41;;;;;;;17.10;8.00;;;;;;;0.92;100.00;98266.02;104839;1303;25453;-71
2023/03/04 01:07:11;;;;;;;15.40;7.30;;;;;;;0.89;100.00;98265.59;104702;1303;25517;-71
2023/03/04 01:09:44;;;;;;;16.40;8.10;;;;;;;0.88;100.00;98269.05;104585;1303;25370;-70
2023/03/04 01:12:13;;;;;;;16.90;7.60;;;;;;;0.86;100.00;98269.30;104675;1303;25420;-69
2023/03/04 01:14:41;;;;;;;16.90;7.00;;;;;;;0.83;100.00;98269.27;104539;1303;25417;-72
2023/03/04 01:17:16;;;;;;;17.10;8.40;;;;;;;0.81;100.00;98263.90;104758;1303;25283;-70
2023/03/04 01:19:45;;;;;;;17.70;8.30;;;;;;;0.79;100.00;98260.22;104752;1303;25446;-71
2023/03/04 01:22:15;;;;;;;14.40;7.20;;;;;;;0.77;100.00;98261.99;104799;1303;25468;-71
2023/03/04 01:24:48;;;;;;;14.40;6.90;;;;;;;0.75;100.00;98258.99;104774;1303;25331;-71
2023/03/04 01:27:17;;;;;;;17.70;8.10;;;;;;;0.70;100.00;98255.05;104655;1304;25419;-71
2023/03/04 01:29:51;;;;;;;16.90;8.10;;;;;;;0.65;100.00;98255.77;104638;1304;25364;-72
2023/03/04 01:32:19;;;;;;;16.20;7.40;;;;;;;0.57;100.00;98256.18;104684;1304;26556;-70
2023/03/04 01:34:49;;;;;;;21.40;8.70;;;;;;;0.49;100.00;98251.79;104700;1304;24714;-69
2023/03/04 01:37:18;;;;;;;17.00;8.10;;;;;;;0.44;100.00;98250.22;104705;1304;25404;-69
2023/03/04 01:39:47;;;;;;;16.40;8.00;;;;;;;0.39;100.00;98257.73;104757;1303;26570;-70
2023/03/04 01:42:20;;;;;;;18.20;7.90;;;;;;;0.34;100.00;98257.64;104812;1303;23365;-69
2023/03/04 01:44:48;;;;;;;20.80;8.70;;;;;;;0.32;100.00;98261.24;103761;1303;1003079;-69
2023/03/04 01:47:18;;;;;;;20.90;8.80;;;;;;;0.30;100.00;98266.55;104487;1303;26556;-69
2023/03/04 01:49:49;;;;;;;18.10;8.40;;;;;;;0.29;100.00;98269.49;104557;1303;26528;-70
2023/03/04 01:52:18;;;;;;;20.60;8.20;;;;;;;0.28;100.00;98266.80;104794;1304;24477;-70
2023/03/04 01:54:47;;;;;;;23.40;10.20;;;;;;;0.26;100.00;98268.80;104067;1304;1003571;-73
2023/03/04 01:57:20;;;;;;;20.10;8.90;;;;;;;0.23;100.00;98278.80;104403;1304;22548;-70
2023/03/04 02:00:19;;;;;;;19.20;8.80;;;;;;;0.20;100.00;98280.35;104753;1304;23874;-72
2023/03/04 02:02:50;;;;;;;17.60;7.70;;;;;;;0.15;100.00;98283.63;104776;1304;24639;-70
2023/03/04 02:05:18;;;;;;;18.50;9.60;;;;;;;0.11;100.00;98286.86;104468;1304;24370;-70
2023/03/04 02:07:48;;;;;;;21.20;9.30;;;;;;;0.07;100.00;98288.34;104754;1304;25410;-71
2023/03/04 02:10:17;;;;;;;16.30;7.00;;;;;;;0.03;100.00;98289.98;104714;1304;22560;-70
2023/03/04 02:12:47;;;;;;;20.60;9.10;;;;;;;-0.03;100.00;98292.46;104015;1304;1003449;-70
2023/03/04 02:15:16;;;;;;;22.20;9.40;;;;;;;-0.10;100.00;98292.96;103865;1304;1003721;-73
2023/03/04 02:17:45;;;;;;;20.90;9.10;;;;;;;-0.15;100.00;98291.45;104749;1304;25405;-69
2023/03/04 02:20:29;;;;;;;23.30;9.50;;;;;;;-0.19;100.00;98286.58;104571;1304;22636;-69
2023/03/04 02:23:09;;;;;;;23.10;10.20;;;;;;;-0.25;100.00;98288.46;104499;1304;24317;-70
2023/03/04 02:26:11;;;;;;;19.10;8.30;;;;;;;-0.29;100.00;98290.17;104584;1305;24423;-70
2023/03/04 02:28:40;;;;;;;20.40;9.10;;;;;;;-0.32;100.00;98295.20;104473;1305;22565;-70
2023/03/04 02:31:30;;;;;;;22.10;8.70;;;;;;;-0.34;100.00;98293.94;104471;1305;22540;-70
2023/03/04 02:34:20;;;;;;;18.90;9.00;;;;;;;-0.37;100.00;98298.70;104339;1305;22564;-70
2023/03/04 02:36:50;;;;;;;20.80;8.80;;;;;;;-0.41;100.00;98297.80;103763;1305;1002993;-70
2023/03/04 02:39:19;;;;;;;21.20;9.10;;;;;;;-0.44;100.00;98295.23;104260;1305;24269;-71
2023/03/04 02:41:48;;;;;;;20.30;8.90;;;;;;;-0.48;100.00;98301.44;104715;1301;22552;-70
2023/03/04 02:44:19;;;;;;;18.60;8.70;;;;;;;-0.51;100.00;98303.35;104776;1304;24271;-70
2023/03/04 02:46:48;;;;;;;20.80;8.70;;;;;;;-0.55;100.00;98302.45;103958;1304;1003489;-69
2023/03/04 02:49:17;;;;;;;26.00;9.30;;;;;;;-0.59;100.00;98300.85;104414;1304;22562;-69
2023/03/04 02:51:48;;;;;;;24.90;9.90;;;;;;;-0.63;100.00;98304.27;104034;1304;1002980;-70
2023/03/04 02:54:18;;;;;;;20.90;9.10;;;;;;;-0.67;100.00;98305.84;104431;1304;22798;-69
2023/03/04 02:56:48;;;;;;;22.30;8.30;;;;;;;-0.71;100.00;98308.02;104477;1304;25460;-70
2023/03/04 02:59:17;;;;;;;18.20;7.50;;;;;;;-0.76;100.00;98309.71;105043;1303;25299;-72
2023/03/04 03:01:49;;;;;;;21.70;9.70;;;;;;;-0.81;100.00;98311.78;104472;1303;23839;-71
2023/03/04 03:04:18;;;;;;;22.10;8.60;;;;;;;-0.83;100.00;98308.79;104087;1303;1002576;-69
2023/03/04 03:06:47;;;;;;;21.40;9.30;;;;;;;-0.85;100.00;98308.80;104747;1303;25499;-71
2023/03/04 03:09:17;;;;;;;22.80;9.20;;;;;;;-0.88;100.00;98308.19;104778;1303;25532;-69
2023/03/04 03:11:46;;;;;;;18.00;7.60;;;;;;;-0.89;100.00;98311.81;104485;1303;25381;-69
2023/03/04 03:14:16;;;;;;;23.10;9.20;;;;;;;-0.91;100.00;98314.64;104788;1303;25332;-69
2023/03/04 03:16:45;;;;;;;23.10;10.10;;;;;;;-0.93;100.00;98318.16;104737;1303;26528;-70
2023/03/04 03:19:13;;;;;;;21.70;8.80;;;;;;;-0.95;100.00;98322.98;104087;1303;1003194;-70
2023/03/04 03:21:42;;;;;;;21.80;8.70;;;;;;;-0.99;100.00;98322.97;104770;1303;26553;-69
2023/03/04 03:24:11;;;;;;;21.20;9.60;;;;;;;-1.01;100.00;98321.05;104823;1304;25580;-70
2023/03/04 03:26:40;;;;;;;22.10;10.00;;;;;;;-1.03;100.00;98321.36;104549;1304;27115;-69
2023/03/04 03:29:08;;;;;;;20.40;9.00;;;;;;;-1.02;100.00;98321.77;104543;1304;22585;-70
2023/03/04 03:31:37;;;;;;;19.90;8.60;;;;;;;-1.00;100.00;98324.34;104584;1304;25278;-72
2023/03/04 03:34:08;;;;;;;21.10;9.10;;;;;;;-1.00;100.00;98326.28;104662;1304;25398;-69
2023/03/04 03:36:37;;;;;;;19.90;7.80;;;;;;;-0.99;100.00;98332.84;104802;1304;25574;-70
2023/03/04 03:39:09;;;;;;;20.70;8.40;;;;;;;-0.99;100.00;98340.86;104740;1304;26773;-69
2023/03/04 03:41:38;;;;;;;16.90;7.70;;;;;;;-1.02;100.00;98339.19;104805;1303;25376;-71
2023/03/04 03:44:07;;;;;;;17.80;7.40;;;;;;;-1.06;100.00;98341.64;104777;1303;22549;-70
2023/03/04 03:46:35;;;;;;;17.60;7.40;;;;;;;-1.09;100.00;98345.30;104793;1303;25335;-69
2023/03/04 03:49:03;;;;;;;20.50;8.40;;;;;;;-1.13;100.00;98347.56;104086;1303;1004229;-70
2023/03/04 03:51:32;;;;;;;23.00;8.90;;;;;;;-1.16;100.00;98351.55;104104;1303;1003148;-69
2023/03/04 03:54:01;;;;;;;23.00;9.30;;;;;;;-1.19;100.00;98350.91;104780;1303;25310;-70
2023/03/04 03:56:30;;;;;;;25.30;9.20;;;;;;;-1.21;100.00;98350.23;104042;1303;1003014;-70
2023/03/04 03:58:59;;;;;;;21.00;9.20;;;;;;;-1.22;100.00;98351.60;104814;1304;25376;-69
2023/03/04 04:01:27;;;;;;;22.50;10.10;;;;;;;-1.26;100.00;98360.23;104752;1304;25377;-70
2023/03/04 04:03:56;;;;;;;23.30;10.30;;;;;;;-1.29;100.00;98362.27;104726;1304;22567;-70
2023/03/04 04:06:25;;;;;;;26.60;10.70;;;;;;;-1.30;100.00;98361.52;104752;1304;25284;-69
2023/03/04 04:08:58;;;;;;;24.30;9.90;;;;;;;-1.31;100.00;98367.58;104745;1304;25476;-69
2023/03/04 04:11:27;;;;;;;27.10;11.10;;;;;;;-1.32;100.00;98372.95;104754;1304;25576;-69
2023/03/04 04:13:56;;;;;;;26.40;10.80;;;;;;;-1.34;100.00;98376.80;104744;1304;22579;-70
2023/03/04 04:16:27;;;;;;;27.50;9.90;;;;;;;-1.36;100.00;98380.16;104737;1304;25413;-70
2023/03/04 04:18:55;;;;;;;26.90;10.00;;;;;;;-1.38;100.00;98384.80;104727;1304;25338;-69
2023/03/04 04:21:25;;;;;;;18.90;8.00;;;;;;;-1.40;100.00;98384.41;104723;1304;25471;-71
2023/03/04 04:23:54;;;;;;;22.20;9.40;;;;;;;-1.40;100.00;98389.55;104724;1304;25357;-70
2023/03/04 04:26:22;;;;;;;20.40;9.30;;;;;;;-1.39;100.00;98396.56;104502;1305;26626;-69
2023/03/04 04:28:51;;;;;;;20.00;8.50;;;;;;;-1.39;100.00;98403.06;103748;1305;1003684;-71
2023/03/04 04:31:19;;;;;;;23.20;8.80;;;;;;;-1.39;100.00;98412.23;103747;1305;1003707;-69
2023/03/04 04:33:48;;;;;;;23.20;9.10;;;;;;;-1.38;100.00;98418.58;104456;1304;23937;-68
2023/03/04 04:36:17;;;;;;;24.80;9.90;;;;;;;-1.39;100.00;98423.98;103781;1305;1003282;-69
2023/03/04 04:38:49;;;;;;;21.30;9.70;;;;;;;-1.37;100.00;98432.45;103751;1305;1003045;-70
2023/03/04 04:41:24;;;;;;;20.00;8.70;;;;;;;-1.36;100.00;98439.05;104629;1304;25491;-69
2023/03/04 04:43:52;;;;;;;24.30;10.00;;;;;;;-1.36;100.00;98446.09;104745;1304;22614;-69
2023/03/04 04:46:21;;;;;;;23.50;10.50;;;;;;;-1.36;100.00;98450.19;104753;1304;26538;-70
2023/03/04 04:48:50;;;;;;;21.60;8.70;;;;;;;-1.37;100.00;98457.52;104716;1304;22542;-68
2023/03/04 04:51:18;;;;;;;18.80;8.30;;;;;;;-1.37;100.00;98462.27;104805;1304;23298;-68
2023/03/04 04:53:47;;;;;;;16.00;7.60;;;;;;;-1.36;100.00;98474.79;104018;1304;1003536;-69
2023/03/04 04:56:19;;;;;;;24.30;9.60;;;;;;;-1.34;100.00;98500.44;103991;1304;1003232;-70
2023/03/04 04:58:48;;;;;;;22.60;8.60;;;;;;;-1.30;100.00;98512.84;104741;1303;22565;-69
2023/03/04 05:01:17;;;;;;;25.40;10.40;;;;;;;-1.27;100.00;98522.13;104438;1303;24325;-69
2023/03/04 05:03:54;;;;;;;24.80;11.20;;;;;;;-1.23;100.00;98530.94;104638;1303;25280;-70
2023/03/04 05:06:23;;;;;;;27.30;10.60;;;;;;;-1.18;100.00;98543.80;104648;1303;25394;-68
2023/03/04 05:08:54;;;;;;;32.00;11.80;;;;;;;-1.11;100.00;98560.02;104738;1303;25281;-70
2023/03/04 05:11:23;;;;;;;30.10;12.30;;;;;;;-1.05;100.00;98640.82;104045;1303;1002982;-69
2023/03/04 05:13:52;;;;;;;29.40;13.40;;;;;;;-0.98;100.00;98646.19;104802;1303;25255;-72
2023/03/04 05:16:20;;;;;;;25.60;11.80;;;;;;;-0.90;100.00;98663.22;104773;1303;25460;-70
2023/03/04 05:18:49;;;;;;;26.60;11.90;;;;;;;-0.83;100.00;98687.25;104084;1303;1003326;-69
2023/03/04 05:21:17;;;;;;;24.20;10.50;;;;;;;-0.76;100.00;98709.66;104749;1303;24396;-69
2023/03/04 05:23:46;;;;;;;21.70;9.20;;;;;;;-0.70;100.00;98719.86;104477;1303;25252;-70
2023/03/04 05:26:16;;;;;;;21.40;10.00;;;;;;;-0.62;100.00;98731.48;104461;1304;24533;-69
2023/03/04 05:28:45;;;;;;;21.30;9.40;;;;;;;-0.55;100.00;98738.27;104748;1304;23960;-69
2023/03/04 05:31:16;;;;;;;20.60;9.10;;;;;;;-0.48;100.00;98748.48;104639;1304;26553;-70
2023/03/04 05:33:46;;;;;;;17.30;8.20;;;;;;;-0.42;100.00;98754.52;104670;1304;25281;-70
2023/03/04 05:36:15;;;;;;;22.00;8.90;;;;;;;-0.36;100.00;98763.52;104700;1304;24253;-71
2023/03/04 05:38:45;;;;;;;25.00;10.60;;;;;;;-0.29;100.00;98772.00;104617;1304;25372;-71
2023/03/04 05:41:14;;;;;;;22.60;10.60;;;;;;;-0.24;100.00;98772.80;104047;1303;1002933;-70
2023/03/04 05:43:43;;;;;;;23.00;10.80;;;;;;;-0.20;100.00;98776.30;104046;1303;1003531;-69
2023/03/04 05:46:13;;;;;;;22.20;9.90;;;;;;;-0.13;100.00;98781.38;104761;1303;24288;-69
2023/03/04 05:48:41;;;;;;;24.70;10.80;;;;;;;-0.05;100.00;98779.30;104672;1303;25618;-70
2023/03/04 05:51:10;;;;;;;22.20;10.80;;;;;;;0.02;100.00;98780.81;104531;1303;25332;-70
2023/03/04 05:53:40;;;;;;;24.60;11.00;;;;;;;0.09;100.00;98779.86;104749;1303;22552;-70
2023/03/04 05:56:14;;;;;;;24.20;9.90;;;;;;;0.17;100.00;98782.66;104822;1303;25610;-69
2023/03/04 05:58:43;;;;;;;21.90;10.20;;;;;;;0.24;100.00;98780.44;104626;1303;22582;-70
2023/03/04 06:01:12;;;;;;;24.20;11.40;;;;;;;0.29;100.00;98770.65;104099;1303;1003806;-70
2023/03/04 06:03:42;;;;;;;22.20;9.80;;;;;;;0.31;100.00;98763.19;103780;1303;1002990;-71
2023/03/04 06:06:11;;;;;;;24.50;11.60;;;;;;;0.34;100.00;98748.69;104050;1303;1003462;-71
2023/03/04 06:08:39;;;;;;;26.90;12.30;;;;;;;0.39;100.00;98736.39;104689;1303;26551;-76
2023/03/04 06:11:08;;;;;;;22.80;11.10;;;;;;;0.45;100.00;98721.16;104648;1303;24266;-75
2023/03/04 06:13:39;;;;;;;28.40;12.60;;;;;;;0.53;100.00;98707.86;104752;1303;25516;-77
2023/03/04 06:16:09;;;;;;;27.40;13.40;;;;;;;0.64;100.00;98696.54;104806;1303;25483;-75
2023/03/04 06:18:39;;;;;;;22.90;11.30;;;;;;;0.74;100.00;98682.71;104829;1303;22671;-75
2023/03/04 06:21:07;;;;;;;27.00;12.10;;;;;;;0.83;100.00;98666.27;104714;1303;22553;-75
2023/03/04 06:23:36;;;;;;;26.40;10.80;;;;;;;0.91;100.00;98650.41;104762;1303;25310;-75
2023/03/04 06:26:08;;;;;;;25.60;11.60;;;;;;;1.00;100.00;98629.02;104655;1303;24397;-75
2023/03/04 06:28:37;;;;;;;20.00;9.70;;;;;;;1.13;100.00;98612.53;104588;1304;26750;-76
2023/03/04 06:31:06;;;;;;;23.00;11.30;;;;;;;1.25;100.00;98595.51;104742;1304;25423;-76
2023/03/04 06:33:36;;;;;;;30.20;11.20;;;;;;;1.43;100.00;98580.34;104793;1304;25627;-76
2023/03/04 06:36:06;;;;;;;24.80;11.00;;;;;;;1.55;100.00;98561.95;104649;1304;25680;-76
2023/03/04 06:38:34;;;;;;;23.40;10.30;;;;;;;1.61;100.00;98534.04;104010;1304;1002983;-78
2023/03/04 06:41:10;;;;;;;23.90;10.90;;;;;;;1.67;100.00;98501.83;104875;1295;25298;-76
2023/03/04 06:43:39;;;;;;;23.60;11.70;;;;;;;1.75;100.00;98473.09;104587;1303;26567;-76
2023/03/04 06:46:09;;;;;;;22.50;10.50;;;;;;;1.87;100.00;98442.59;104994;1303;25460;-79
2023/03/04 06:48:37;;;;;;;22.10;10.30;;;;;;;2.06;100.00;98417.98;104755;1298;24240;-76
2023/03/04 06:51:07;;;;;;;24.00;11.10;;;;;;;2.17;100.00;98397.44;104772;1302;24772;-77
2023/03/04 06:53:38;;;;;;;24.80;11.90;;;;;;;2.14;100.00;98360.85;104589;1303;26553;-78
2023/03/04 06:56:15;;;;;;;25.90;12.20;;;;;;;2.18;100.00;98324.53;104627;1303;25332;-79
2023/03/04 06:58:44;;;;;;;25.60;12.40;;;;;;;2.30;100.00;98297.38;104449;1298;25322;-76
2023/03/04 07:01:17;;;;;;;31.30;15.10;;;;;;;2.42;100.00;98276.91;104597;1302;25331;-78
2023/03/04 07:03:47;;;;;;;28.00;12.40;;;;;;;2.52;100.00;98254.76;104676;1299;25638;-78
2023/03/04 07:06:17;;;;;;;27.10;12.40;;;;;;;2.63;100.00;98235.78;104475;1299;22643;-77
2023/03/04 07:08:46;;;;;;;24.00;12.00;;;;;;;2.79;100.00;98218.04;103655;1305;1003499;-76
2023/03/04 07:11:15;;;;;;;23.30;11.40;;;;;;;2.92;100.00;98213.57;104526;1305;25471;-76
2023/03/04 07:13:43;;;;;;;28.00;12.60;;;;;;;3.04;100.00;98216.98;104468;1304;24770;-77
2023/03/04 07:16:14;;;;;;;25.20;11.00;;;;;;;3.19;100.00;98221.52;103748;1304;1002978;-75
2023/03/04 07:18:43;;;;;;;23.40;10.50;;;;;;;3.37;100.00;98227.95;104647;1305;25491;-75
2023/03/04 07:21:16;;;;;;;27.00;12.00;;;;;;;3.45;100.00;98233.12;104534;1305;25414;-76
2023/03/04 07:23:44;;;;;;;25.70;12.20;;;;;;;3.51;100.00;98241.57;104500;1305;22571;-75
2023/03/04 07:26:13;;;;;;;24.00;12.10;;;;;;;3.56;100.00;98253.06;104441;1304;25389;-77
2023/03/04 07:28:42;;;;;;;25.00;12.00;;;;;;;3.54;100.00;98267.07;104463;1304;24272;-75
2023/03/04 07:31:23;;;;;;;27.90;12.50;;;;;;;3.49;100.00;98287.15;104471;1304;25284;-76
2023/03/04 07:33:55;;;;;;;25.20;12.50;;;;;;;3.49;100.00;98303.92;104442;1304;25473;-80
2023/03/04 07:36:25;;;;;;;26.20;12.80;;;;;;;3.54;100.00;98313.55;104712;1304;22713;-73
2023/03/04 07:38:54;;;;;;;28.10;12.80;;;;;;;3.61;100.00;98321.12;104499;1302;25516;-68
2023/03/04 07:41:24;;;;;;;25.30;12.50;;;;;;;3.70;100.00;98330.11;104543;1298;23127;-70
2023/03/04 07:43:57;;;;;;;26.60;11.80;;;;;;;3.80;100.00;98333.90;103685;1301;1003078;-69
2023/03/04 07:46:26;;;;;;;23.60;10.80;;;;;;;3.92;100.00;98341.63;104621;1298;24263;-71
2023/03/04 07:48:55;;;;;;;20.40;10.40;;;;;;;3.97;100.00;98344.06;104529;1304;22555;-71
2023/03/04 07:51:32;;;;;;;23.20;11.30;;;;;;;4.05;100.00;98354.65;104558;1299;25407;-71
2023/03/04 07:54:01;;;;;;;22.80;10.30;;;;;;;4.15;100.00;98351.78;104734;1304;23499;-70
2023/03/04 07:56:31;;;;;;;22.40;11.50;;;;;;;4.17;100.00;98355.44;104754;1302;22704;-69
2023/03/04 07:59:00;;;;;;;25.40;11.40;;;;;;;4.14;100.00;98369.64;104009;1302;1003729;-70
2023/03/04 08:01:30;;;;;;;24.60;10.80;;;;;;;4.22;100.00;98363.17;104725;1300;25612;-70
2023/03/04 08:03:59;;;;;;;26.80;11.90;;;;;;;4.29;100.00;98368.90;104733;1302;22576;-69
2023/03/04 08:06:28;;;;;;;22.40;10.60;;;;;;;4.33;100.00;98370.29;104576;1299;25388;-68
2023/03/04 08:09:04;;;;;;;25.20;11.30;;;;;;;4.42;100.00;98359.49;104502;1304;26652;-67
2023/03/04 08:11:36;;;;;;;24.80;11.70;;;;;;;4.54;100.00;98368.23;104608;1301;25404;-68
2023/03/04 08:14:06;;;;;;;23.50;11.30;;;;;;;4.61;100.00;98371.55;104561;1298;24828;-69
2023/03/04 08:16:34;;;;;;;23.10;11.50;;;;;;;4.72;100.00;98375.30;104575;1298;26572;-69
2023/03/04 08:19:04;;;;;;;25.30;11.70;;;;;;;4.74;100.00;98385.92;104442;1299;25407;-69
2023/03/04 08:21:32;;;;;;;24.90;11.60;;;;;;;4.77;100.00;98393.65;103828;1298;1003398;-70
2023/03/04 08:24:06;;;;;;;24.20;11.10;;;;;;;4.82;100.00;98394.52;104427;1299;25459;-70
2023/03/04 08:26:40;;;;;;;;;;;;;;;4.86;100.00;98403.59;104398;1304;22534;-70
2023/03/04 08:29:11;;;;;;;19.50;9.60;;;;;;;4.81;100.00;98399.80;104405;1305;25443;-69
2023/03/04 08:31:41;;;;;;;22.20;10.30;;;;;;;4.86;100.00;98399.63;104500;1303;22668;-72
2023/03/04 08:34:11;;;;;;;26.90;11.60;;;;;;;5.02;100.00;98403.52;104626;1305;25389;-68
2023/03/04 08:36:41;;;;;;;23.20;11.20;;;;;;;5.13;100.00;98409.03;104646;1299;22573;-71
2023/03/04 08:39:14;;;;;;;23.20;11.10;;;;;;;5.19;100.00;98414.84;104757;1304;22555;-77
2023/03/04 08:41:43;;;;;;;19.70;9.40;;;;;;;5.28;100.00;98414.64;104590;1299;24263;-75
2023/03/04 08:44:11;;;;;;;22.30;10.70;;;;;;;5.43;100.00;98414.25;104669;1302;25417;-76
2023/03/04 08:46:41;;;;;;;26.10;11.00;;;;;;;5.56;100.00;98412.67;104575;1298;25420;-70
2023/03/04 08:49:11;;;;;;;21.50;10.20;;;;;;;5.76;100.00;98416.05;104586;1299;22574;-66
2023/03/04 08:51:41;;;;;;;22.90;10.60;;;;;;;5.75;100.00;98434.31;104623;1302;25467;-68
2023/03/04 08:54:10;;;;;;;21.70;10.70;;;;;;;5.72;100.00;98463.75;104512;1299;25545;-69
2023/03/04 08:56:40;;;;;;;21.90;10.50;;;;;;;5.79;100.00;98472.13;104480;1298;25444;-68
2023/03/04 08:59:09;;;;;;;21.60;10.40;;;;;;;5.84;100.00;98474.45;104034;1302;1003085;-69
2023/03/04 09:01:37;;;;;;;25.10;11.20;;;;;;;5.98;100.00;98478.23;103849;1304;1003698;-69
2023/03/04 09:04:06;;;;;;;22.60;10.70;;;;;;;6.08;100.00;98485.01;103906;1299;1003414;-69
2023/03/04 09:06:35;;;;;;;24.10;11.40;;;;;;;6.07;100.00;98501.15;104489;1298;25338;-68
2023/03/04 09:09:03;;;;;;;24.50;11.50;;;;;;;6.12;100.00;98502.39;103851;1301;1003435;-68
2023/03/04 09:11:32;;;;;;;22.80;10.60;;;;;;;6.24;100.00;98501.92;103911;1301;1003587;-68
2023/03/04 09:14:01;;;;;;;23.80;10.90;;;;;;;6.32;100.00;98511.17;104481;1302;25351;-68
2023/03/04 09:16:30;;;;;;;26.70;11.00;;;;;;;6.45;100.00;98515.20;104724;1299;22587;-69
2023/03/04 09:18:59;;;;;;;21.10;9.80;;;;;;;6.66;100.00;98516.46;104448;1301;25399;-69
2023/03/04 09:21:31;;;;;;;22.00;9.90;;;;;;;6.65;100.00;98558.48;104691;1298;25332;-70
2023/03/04 09:24:00;;;;;;;28.30;11.60;;;;;;;6.46;100.00;98581.88;104798;1302;25328;-69
2023/03/04 09:26:29;;;;;;;27.00;12.50;;;;;;;6.27;100.00;98591.01;104674;1301;26841;-69
2023/03/04 09:29:00;;;;;;;23.90;12.40;;;;;;;6.24;100.00;98580.26;103862;1301;1002862;-69
2023/03/04 09:31:29;;;;;;;20.00;9.90;;;;;;;6.26;100.00;98578.23;104419;1302;22564;-71
2023/03/04 09:33:57;;;;;;;19.80;9.60;;;;;;;6.33;100.00;98584.93;104487;1302;22585;-70
2023/03/04 09:36:26;;;;;;;21.30;9.70;;;;;;;6.47;100.00;98584.17;104582;1305;25404;-69
2023/03/04 09:38:57;;;;;;;22.30;10.50;;;;;;;6.55;100.00;98597.63;104470;1305;23944;-75
2023/03/04 09:41:35;;;;;;;18.90;9.30;;;;;;;6.55;100.00;98615.86;104499;1304;22608;-76
2023/03/04 09:44:27;;;;;;;19.60;8.40;;;;;;;6.67;100.00;98612.90;104390;1299;23025;-68
2023/03/04 09:47:04;;;;;;;18.90;8.20;;;;;;;6.90;100.00;98604.02;104392;1302;26531;-70
2023/03/04 09:49:33;;;;;;;19.50;8.70;;;;;;;7.06;100.00;98612.90;104610;1302;25439;-69
2023/03/04 09:52:28;;;;;;;19.70;9.00;;;;;;;7.19;100.00;98631.92;104526;1305;25443;-70
2023/03/04 09:54:56;;;;;;;18.90;8.70;;;;;;;7.17;100.00;98673.00;104782;1301;26653;-69
2023/03/04 09:57:59;;;;;;;21.10;9.60;;;;;;;7.25;100.00;98678.55;103805;1301;1003278;-69
2023/03/04 10:00:38;;;;;;;23.00;10.30;;;;;;;7.59;100.00;98672.05;103814;1304;1003412;-69
2023/03/04 10:03:14;;;;;;;18.70;9.40;;;;;;;7.74;100.00;98684.67;104641;1302;25389;-68
2023/03/04 10:05:55;;;;;;;20.00;9.50;;;;;;;7.75;100.00;98716.02;104402;1304;22553;-70
2023/03/04 10:08:45;;;;;;;17.70;8.10;;;;;;;7.60;100.00;98763.86;104676;1304;25554;-72
2023/03/04 10:11:52;;;;;;;21.90;8.20;;;;;;;7.18;100.00;98804.98;104711;1302;26536;-69
2023/03/04 10:14:21;;;;;;;16.20;6.90;;;;;;;7.00;100.00;98826.09;104166;1304;25307;-69
2023/03/04 10:17:05;;;;;;;14.50;7.20;;;;;;;7.01;100.00;98849.79;104410;1306;25300;-70
2023/03/04 10:19:41;;;;;;;17.70;7.40;;;;;;;6.92;100.00;98870.82;104600;1301;22566;-68
2023/03/04 10:22:24;;;;;;;18.60;7.50;;;;;;;6.81;100.00;98852.96;103745;1304;1004310;-70
2023/03/04 10:24:57;;;;;;;15.70;7.00;;;;;;;7.01;100.00;98815.60;104613;1298;23899;-69
2023/03/04 10:27:25;;;;;;;17.30;7.60;;;;;;;7.36;100.00;98800.91;104385;1302;25367;-68
2023/03/04 10:29:54;;;;;;;16.40;8.00;;;;;;;7.62;100.00;98809.34;104667;1304;25348;-69
2023/03/04 10:32:25;;;;;;;16.20;7.90;;;;;;;7.57;100.00;98852.62;104379;1301;23769;-68
2023/03/04 10:34:54;;;;;;;17.40;7.00;;;;;;;7.56;100.00;98869.17;104710;1299;23318;-69
2023/03/04 10:37:23;;;;;;;15.10;7.40;;;;;;;7.66;100.00;98872.59;104593;1304;22558;-69
2023/03/04 10:39:52;;;;;;;18.60;8.20;;;;;;;7.72;100.00;98882.90;104380;1298;25761;-69
2023/03/04 10:42:23;;;;;;;23.30;9.80;;;;;;;7.82;100.00;98888.27;104640;1299;26556;-69
2023/03/04 10:44:58;;;;;;;20.50;8.80;;;;;;;7.87;100.00;98895.48;104351;1301;22562;-69
2023/03/04 10:47:31;;;;;;;20.20;8.00;;;;;;;7.94;100.00;98890.75;104458;1305;22578;-68
2023/03/04 10:50:02;;;;;;;29.80;8.40;;;;;;;8.05;100.00;98895.20;104643;1299;24268;-70
2023/03/04 10:52:31;;;;;;;17.90;7.30;;;;;;;8.17;100.00;98917.09;104479;1298;26548;-70
2023/03/04 10:55:04;;;;;;;15.30;6.90;;;;;;;8.17;100.00;98954.29;104594;1305;23921;-70
2023/03/04 10:57:38;;;;;;;16.10;7.20;;;;;;;8.09;100.00;98963.59;104583;1298;26563;-76
2023/03/04 11:00:16;;;;;;;15.00;7.10;;;;;;;8.05;100.00;98969.33;104714;1298;24386;-77
2023/03/04 11:02:45;;;;;;;21.60;7.40;;;;;;;8.11;100.00;98965.45;104555;1298;27072;-76
2023/03/04 11:05:15;;;;;;;15.00;5.90;;;;;;;8.07;100.00;98968.11;104858;1299;25550;-76
2023/03/04 11:07:51;;;;;;;14.50;7.40;;;;;;;8.05;100.00;98950.59;104789;1302;22555;-77
2023/03/04 11:10:40;;;;;;;18.30;7.70;;;;;;;8.09;100.00;98941.80;104826;1302;26560;-76
2023/03/04 11:13:17;;;;;;;15.70;6.90;;;;;;;8.25;100.00;98924.48;104639;1302;25342;-78
2023/03/04 11:15:54;;;;;;;17.60;7.10;;;;;;;8.07;100.00;98928.85;104541;1304;25397;-76
2023/03/04 11:19:05;;;;;;;18.50;7.40;;;;;;;7.88;100.00;98918.23;104774;1304;22544;-78
2023/03/04 11:21:37;;;;;;;17.10;7.90;;;;;;;7.78;100.00;98897.81;104081;1302;25661;-77
2023/03/04 11:24:18;;;;;;;25.30;10.60;;;;;;;7.68;100.00;98889.23;104698;1304;25290;-76
2023/03/04 11:27:12;;;;;;;17.60;8.40;;;;;;;7.68;100.00;98881.90;104697;1296;24315;-70
2023/03/04 11:29:42;;;;;;;19.10;7.50;;;;;;;7.75;100.00;98866.95;104496;1304;22584;-78